createdAt,value
2022-10-24T00:22:55.504Z,88.81
2022-10-24T00:25:22.448Z,89.10
2022-10-24T00:27:49.230Z,89.30
2022-10-24T00:30:16.240Z,89.72
2022-10-24T00:32:43.439Z,89.59
2022-10-24T00:35:10.890Z,89.76
2022-10-24T00:37:37.795Z,90.16
2022-10-24T00:40:06.358Z,90.11
2022-10-24T00:42:33.293Z,89.82
2022-10-24T00:45:03.725Z,89.64
2022-10-24T00:47:30.709Z,90.15
2022-10-24T00:50:11.829Z,89.91
2022-10-24T00:52:44.734Z,90.23
2022-10-24T00:55:12.550Z,90.04
2022-10-24T00:57:53.461Z,90.63
2022-10-24T01:00:32.465Z,90.28
2022-10-24T01:02:59.596Z,90.69
2022-10-24T01:05:39.751Z,90.76
2022-10-24T01:08:27.320Z,90.42
2022-10-24T01:11:13.126Z,91.04
2022-10-24T01:13:42.855Z,90.90
2022-10-24T01:16:20.254Z,90.40
2022-10-24T01:19:38.473Z,90.55
2022-10-24T01:22:15.717Z,90.86
2022-10-24T01:25:17.494Z,90.97
2022-10-24T01:28:15.281Z,91.25
2022-10-24T01:30:59.838Z,91.09
2022-10-24T01:33:35.349Z,90.99
2022-10-24T01:36:17.126Z,90.77
2022-10-24T01:38:55.527Z,91.15
2022-10-24T01:41:26.440Z,90.96
2022-10-24T01:44:11.753Z,90.73
2022-10-24T01:46:44.632Z,90.50
2022-10-24T01:49:17.813Z,89.99
2022-10-24T01:51:49.398Z,90.27
2022-10-24T01:54:17.049Z,89.97
2022-10-24T01:56:43.878Z,89.63
2022-10-24T01:59:26.062Z,89.17
2022-10-24T02:02:17.231Z,89.16
2022-10-24T02:05:01.404Z,89.30
2022-10-24T02:07:30.558Z,88.95
2022-10-24T02:10:03.712Z,88.61
2022-10-24T02:12:31.462Z,88.48
2022-10-24T02:15:05.499Z,88.67
2022-10-24T02:17:32.744Z,88.32
2022-10-24T02:20:00.236Z,87.33
2022-10-24T02:22:47.838Z,87.87
2022-10-24T02:25:22.293Z,87.54
2022-10-24T02:27:53.103Z,87.59
2022-10-24T02:30:23.713Z,87.52
2022-10-24T02:32:54.979Z,87.63
2022-10-24T02:35:27.014Z,87.58
2022-10-24T02:37:59.956Z,87.91
2022-10-24T02:40:26.865Z,87.68
2022-10-24T02:42:57.052Z,87.95
2022-10-24T02:45:25.176Z,88.12
2022-10-24T02:47:56.710Z,88.70
2022-10-24T02:50:23.751Z,89.22
2022-10-24T02:52:50.330Z,89.66
2022-10-24T02:55:17.147Z,89.48
2022-10-24T02:57:43.752Z,89.90
2022-10-24T03:00:11.026Z,89.50
2022-10-24T03:14:49.122Z,90.11
2022-10-24T03:17:15.820Z,90.04
2022-10-24T03:19:42.391Z,90.02
2022-10-24T03:22:11.340Z,89.52
2022-10-24T03:24:44.577Z,89.42
2022-10-24T03:27:22.440Z,89.26
2022-10-24T03:29:49.001Z,88.92
2022-10-24T03:32:17.996Z,88.95
2022-10-24T03:34:44.758Z,88.95
2022-10-24T03:37:11.670Z,88.27
2022-10-24T03:39:38.317Z,88.12
2022-10-24T03:42:04.890Z,88.00
2022-10-24T03:44:31.897Z,87.37
2022-10-24T03:46:58.547Z,87.19
2022-10-24T03:49:25.448Z,87.34
2022-10-24T03:51:52.054Z,86.90
2022-10-24T03:54:18.645Z,86.55
2022-10-24T03:56:45.565Z,87.53
2022-10-24T03:59:12.269Z,87.52
2022-10-24T04:01:39.123Z,87.23
2022-10-24T04:04:05.854Z,86.64
2022-10-24T04:06:35.632Z,87.22
2022-10-24T04:09:04.416Z,86.89
2022-10-24T04:11:31.022Z,86.95
2022-10-24T04:13:58.200Z,87.27
2022-10-24T04:16:24.861Z,87.64
2022-10-24T04:18:52.780Z,87.47
2022-10-24T04:21:21.789Z,87.83
2022-10-24T04:23:49.001Z,88.16
2022-10-24T04:26:16.731Z,88.12
2022-10-24T04:28:44.297Z,88.22
2022-10-24T04:31:10.876Z,88.21
2022-10-24T04:33:37.511Z,88.16
2022-10-24T04:36:04.482Z,87.66
2022-10-24T04:38:33.619Z,87.65
2022-10-24T04:41:00.769Z,87.65
2022-10-24T04:43:27.641Z,87.56
2022-10-24T04:45:54.215Z,87.23
2022-10-24T04:48:20.826Z,87.30
2022-10-24T04:50:48.350Z,87.12
2022-10-24T04:53:15.157Z,87.17
2022-10-24T04:55:42.097Z,87.27
2022-10-24T04:58:08.643Z,87.64
2022-10-24T05:00:35.405Z,88.03
2022-10-24T05:03:02.068Z,87.60
2022-10-24T05:05:28.739Z,87.67
2022-10-24T05:07:55.492Z,87.43
2022-10-24T05:10:22.097Z,87.76
2022-10-24T05:12:48.874Z,87.08
2022-10-24T05:15:15.593Z,86.83
2022-10-24T05:17:42.282Z,86.68
2022-10-24T05:20:09.527Z,85.64
2022-10-24T05:22:36.248Z,85.83
2022-10-24T05:25:04.427Z,86.00
2022-10-24T05:27:31.358Z,86.08
2022-10-24T05:29:58.101Z,86.16
2022-10-24T05:32:25.596Z,86.62
2022-10-24T05:34:52.695Z,86.79
2022-10-24T05:37:19.410Z,86.54
2022-10-24T05:39:46.128Z,86.71
2022-10-24T05:42:12.787Z,86.90
2022-10-24T05:44:39.415Z,87.09
2022-10-24T05:47:06.077Z,87.18
2022-10-24T05:49:32.851Z,87.33
2022-10-24T05:51:59.753Z,87.29
2022-10-24T05:54:33.245Z,87.28
2022-10-24T05:57:09.313Z,87.79
2022-10-24T05:59:35.894Z,87.76
2022-10-24T06:02:02.832Z,87.95
2022-10-24T06:04:29.625Z,88.14
2022-10-24T06:06:56.193Z,88.29
2022-10-24T06:09:22.906Z,88.47
2022-10-24T06:11:49.606Z,88.11
2022-10-24T06:14:16.922Z,88.38
2022-10-24T06:16:43.565Z,87.89
2022-10-24T06:19:10.358Z,88.13
2022-10-24T06:21:36.936Z,88.22
2022-10-24T06:24:03.678Z,87.93
2022-10-24T06:26:30.316Z,88.21
2022-10-24T06:31:59.295Z,88.13
2022-10-24T06:44:38.509Z,88.74
2022-10-24T06:55:30.289Z,88.45
2022-10-24T07:02:28.936Z,88.38
2022-10-24T07:04:57.922Z,88.46
2022-10-24T07:07:24.479Z,88.58
2022-10-24T07:09:57.414Z,88.17
2022-10-24T07:12:24.912Z,88.28
2022-10-24T07:55:22.796Z,87.02
2022-10-24T07:57:49.388Z,87.32
2022-10-24T08:00:16.519Z,87.27
2022-10-24T08:02:43.256Z,87.54
2022-10-24T08:05:11.619Z,86.90
2022-10-24T08:07:38.244Z,87.26
2022-10-24T08:10:05.814Z,87.31
2022-10-24T08:12:32.420Z,87.15
2022-10-24T08:14:59.113Z,87.14
2022-10-24T08:17:25.801Z,87.45
2022-10-24T08:19:52.877Z,87.29
2022-10-24T08:22:19.590Z,87.02
2022-10-24T08:24:46.489Z,86.61
2022-10-24T08:27:13.619Z,87.01
2022-10-24T08:29:40.649Z,86.71
2022-10-24T08:32:07.505Z,86.81
2022-10-24T08:34:34.584Z,86.99
2022-10-24T08:37:01.188Z,87.17
2022-10-24T08:39:28.683Z,86.90
2022-10-24T08:42:01.222Z,86.90
2022-10-24T08:44:27.785Z,87.11
2022-10-24T08:47:07.367Z,86.94
2022-10-24T08:49:52.841Z,87.10
2022-10-24T08:52:51.730Z,86.65
2022-10-24T08:55:50.093Z,86.50
2022-10-24T08:58:25.713Z,85.97
2022-10-24T09:00:57.558Z,85.93
2022-10-24T09:03:54.857Z,85.54
2022-10-24T09:06:20.411Z,85.51
2022-10-24T09:08:54.268Z,85.35
2022-10-24T09:11:39.999Z,85.01
2022-10-24T09:14:21.404Z,84.56
2022-10-24T09:17:24.997Z,84.70
2022-10-24T09:19:58.058Z,84.39
2022-10-24T09:22:28.590Z,84.22
2022-10-24T09:25:01.678Z,84.29
2022-10-24T09:27:32.154Z,84.53
2022-10-24T09:29:59.539Z,84.03
2022-10-24T09:32:30.647Z,84.01
2022-10-24T09:35:03.567Z,84.17
2022-10-24T09:37:44.176Z,83.74
2022-10-24T09:40:17.654Z,83.77
2022-10-24T09:43:09.016Z,83.29
2022-10-24T09:46:00.764Z,83.32
2022-10-24T09:48:39.955Z,82.94
2022-10-24T09:51:08.199Z,83.64
2022-10-24T09:54:06.502Z,83.26
2022-10-24T09:56:39.706Z,83.05
2022-10-24T09:59:31.650Z,82.83
2022-10-24T10:02:10.496Z,83.47
2022-10-24T10:04:38.457Z,83.33
2022-10-24T10:07:18.822Z,82.80
2022-10-24T10:10:00.222Z,82.40
2022-10-24T10:12:38.177Z,82.35
2022-10-24T10:15:24.282Z,81.47
2022-10-24T10:17:52.976Z,81.98
2022-10-24T10:20:40.314Z,80.85
2022-10-24T10:23:28.261Z,80.62
2022-10-24T10:26:27.739Z,81.56
2022-10-24T10:29:00.067Z,81.11
2022-10-24T10:31:48.574Z,82.24
2022-10-24T10:34:38.754Z,81.84
2022-10-24T10:37:17.129Z,81.50
2022-10-24T10:39:58.809Z,80.54
2022-10-24T10:42:41.281Z,80.21
2022-10-24T10:45:16.074Z,80.10
2022-10-24T10:48:07.202Z,80.02
2022-10-24T10:50:56.694Z,79.85
2022-10-24T10:53:32.453Z,79.06
2022-10-24T10:56:21.671Z,79.46
2022-10-24T10:59:18.862Z,79.43
2022-10-24T11:02:33.304Z,79.43
2022-10-24T11:05:14.962Z,79.33
2022-10-24T11:08:19.134Z,79.68
2022-10-24T11:11:02.732Z,79.65
2022-10-24T11:13:38.828Z,78.97
2022-10-24T11:16:17.676Z,78.82
2022-10-24T11:18:48.569Z,80.96
2022-10-24T11:21:17.812Z,80.73
2022-10-24T11:23:54.612Z,79.34
2022-10-24T11:26:34.084Z,80.52
2022-10-24T11:29:22.568Z,79.65
2022-10-24T11:31:59.421Z,79.81
2022-10-24T11:34:34.080Z,78.93
2022-10-24T11:37:07.844Z,78.19
2022-10-24T11:40:10.727Z,78.09
2022-10-24T11:42:50.697Z,77.58
2022-10-24T11:45:24.760Z,76.79
2022-10-24T11:47:59.696Z,76.64
2022-10-24T11:50:59.868Z,77.95
2022-10-24T11:53:31.071Z,76.46
2022-10-24T11:56:36.798Z,75.93
2022-10-24T11:59:06.872Z,76.44
2022-10-24T12:01:55.313Z,76.01
2022-10-24T12:04:34.938Z,73.63
2022-10-24T12:07:04.453Z,70.82
2022-10-24T12:09:33.592Z,72.45
2022-10-24T12:12:56.902Z,72.07
2022-10-24T12:15:45.821Z,72.58
2022-10-24T12:18:37.805Z,73.50
2022-10-24T12:21:27.229Z,75.27
2022-10-24T12:23:58.899Z,74.81
2022-10-24T12:26:35.967Z,75.57
2022-10-24T12:29:05.780Z,74.92
2022-10-24T12:31:34.533Z,75.46
2022-10-24T12:34:16.291Z,78.03
2022-10-24T12:37:12.085Z,78.31
2022-10-24T12:39:44.448Z,76.18
2022-10-24T12:42:24.028Z,75.25
2022-10-24T12:44:51.762Z,76.33
2022-10-24T12:47:39.925Z,76.58
2022-10-24T12:50:21.645Z,75.77
2022-10-24T12:52:48.398Z,75.82
2022-10-24T12:55:50.546Z,78.42
2022-10-24T12:58:36.153Z,75.29
2022-10-24T13:01:07.365Z,74.58
2022-10-24T13:03:55.321Z,75.18
2022-10-24T13:06:45.462Z,75.42
2022-10-24T13:09:40.313Z,69.71
2022-10-24T13:12:40.370Z,65.78
2022-10-24T13:15:25.193Z,68.56
2022-10-24T13:18:04.646Z,68.57
2022-10-24T13:20:38.562Z,66.58
2022-10-24T13:23:18.162Z,64.51
2022-10-24T13:25:45.549Z,66.25
2022-10-24T13:28:36.023Z,62.81
2022-10-24T13:31:02.588Z,61.17
2022-10-24T13:33:32.282Z,62.48
2022-10-24T13:36:17.646Z,62.84
2022-10-24T13:38:49.532Z,62.21
2022-10-24T13:41:39.541Z,66.75
2022-10-24T13:44:11.769Z,67.34
2022-10-24T13:46:53.321Z,68.57
2022-10-24T13:49:53.333Z,68.08
2022-10-24T13:52:24.396Z,68.37
2022-10-24T13:54:58.281Z,69.29
2022-10-24T13:57:28.317Z,70.36
2022-10-24T14:00:01.141Z,71.90
2022-10-24T14:02:37.214Z,72.88
2022-10-24T14:05:05.397Z,75.92
2022-10-24T14:07:33.789Z,74.96
2022-10-24T14:10:08.962Z,75.55
2022-10-24T14:12:39.210Z,75.04
2022-10-24T14:15:15.982Z,75.04
2022-10-24T14:17:53.285Z,75.11
2022-10-24T14:20:29.981Z,75.40
2022-10-24T14:22:57.438Z,74.50
2022-10-24T14:25:36.215Z,75.04
2022-10-24T14:28:14.419Z,75.27
2022-10-24T14:30:52.012Z,76.54
2022-10-24T14:33:25.568Z,75.27
2022-10-24T14:35:56.836Z,76.33
2022-10-24T14:38:27.006Z,76.55
2022-10-24T14:41:07.828Z,75.28
2022-10-24T14:43:37.281Z,75.47
2022-10-24T14:46:43.640Z,75.38
2022-10-24T14:49:26.360Z,74.28
2022-10-24T14:51:59.947Z,74.95
2022-10-24T14:54:34.123Z,75.29
2022-10-24T14:57:03.716Z,75.74
2022-10-24T14:59:35.223Z,75.33
2022-10-24T15:02:23.928Z,75.55
2022-10-24T15:04:52.056Z,75.72
2022-10-24T15:07:32.071Z,75.85
2022-10-24T15:10:02.150Z,76.58
2022-10-24T15:12:33.966Z,76.94
2022-10-24T15:15:23.597Z,76.65
2022-10-24T15:17:52.106Z,76.45
2022-10-24T15:20:24.564Z,75.77
2022-10-24T15:22:55.325Z,76.08
2022-10-24T15:25:29.374Z,76.43
2022-10-24T15:27:59.499Z,76.58
2022-10-24T15:30:34.925Z,76.33
2022-10-24T15:33:02.685Z,77.66
2022-10-24T15:35:33.953Z,78.21
2022-10-24T15:38:11.228Z,77.66
2022-10-24T15:40:42.336Z,77.50
2022-10-24T15:43:13.444Z,76.85
2022-10-24T15:45:40.213Z,76.50
2022-10-24T15:48:06.845Z,76.31
2022-10-24T15:50:33.993Z,76.35
2022-10-24T15:53:02.884Z,76.35
2022-10-24T15:55:30.734Z,76.33
2022-10-24T15:57:59.828Z,76.26
2022-10-24T16:00:26.682Z,76.64
2022-10-24T16:02:58.109Z,76.47
2022-10-24T16:05:28.309Z,76.18
2022-10-24T16:07:54.896Z,76.05
2022-10-24T16:10:23.389Z,76.22
2022-10-24T16:12:50.406Z,76.38
2022-10-24T16:15:29.023Z,76.76
2022-10-24T16:17:55.920Z,76.56
2022-10-24T16:20:22.531Z,76.33
2022-10-24T16:22:49.810Z,76.50
2022-10-24T16:25:28.501Z,76.02
2022-10-24T16:27:55.048Z,76.37
2022-10-24T16:30:25.360Z,76.11
2022-10-24T16:32:52.322Z,76.10
2022-10-24T16:35:25.780Z,76.06
2022-10-24T16:37:54.104Z,76.08
2022-10-24T16:40:21.501Z,75.99
2022-10-24T16:42:52.826Z,75.72
2022-10-24T16:45:20.425Z,76.10
2022-10-24T16:47:50.938Z,76.03
2022-10-24T16:50:24.135Z,76.57
2022-10-24T16:52:56.746Z,76.55
2022-10-24T16:55:23.612Z,76.09
2022-10-24T16:57:50.536Z,76.05
2022-10-24T17:00:19.231Z,76.30
2022-10-24T17:02:48.507Z,76.49
2022-10-24T17:05:15.754Z,78.24
2022-10-24T17:07:44.024Z,77.19
2022-10-24T17:10:12.398Z,76.60
2022-10-24T17:12:41.086Z,76.07
2022-10-24T17:15:08.603Z,77.19
2022-10-24T17:17:41.470Z,76.39
2022-10-24T17:20:09.921Z,76.58
2022-10-24T17:22:37.703Z,75.99
2022-10-24T17:25:06.026Z,75.93
2022-10-24T17:27:32.855Z,75.60
2022-10-24T17:29:59.695Z,75.32
2022-10-24T17:32:26.536Z,75.26
2022-10-24T17:34:55.451Z,75.16
2022-10-24T17:37:32.806Z,75.56
2022-10-24T17:40:06.000Z,75.05
2022-10-24T17:42:35.301Z,75.06
2022-10-24T17:45:02.010Z,76.11
2022-10-24T17:47:28.850Z,75.65
2022-10-24T17:49:55.472Z,75.17
2022-10-24T17:52:23.873Z,74.75
2022-10-24T17:54:51.162Z,76.04
2022-10-24T17:57:17.868Z,76.97
2022-10-24T17:59:44.483Z,77.32
2022-10-24T18:02:13.925Z,78.20
2022-10-24T18:04:42.794Z,78.37
2022-10-24T18:07:09.598Z,76.49
2022-10-24T18:09:39.054Z,77.19
2022-10-24T18:12:06.377Z,78.47
2022-10-24T18:14:33.094Z,77.87
2022-10-24T18:17:01.156Z,77.94
2022-10-24T18:19:27.778Z,77.36
2022-10-24T18:21:54.461Z,77.03
2022-10-24T18:24:21.389Z,78.21
2022-10-24T18:26:48.149Z,77.80
2022-10-24T18:29:14.891Z,76.31
2022-10-24T18:31:41.484Z,74.63
2022-10-24T18:34:08.843Z,74.89
2022-10-24T18:36:39.655Z,73.86
2022-10-24T18:39:06.315Z,74.81
2022-10-24T18:41:46.886Z,73.78
2022-10-24T18:44:36.056Z,74.03
2022-10-24T18:47:08.572Z,73.84
2022-10-24T18:49:38.363Z,74.08
2022-10-24T18:52:11.103Z,74.34
2022-10-24T18:54:45.180Z,73.91
2022-10-24T18:57:32.479Z,74.75
2022-10-24T18:59:59.905Z,74.09
2022-10-24T19:02:37.119Z,75.05
2022-10-24T19:05:14.375Z,74.08
2022-10-24T19:07:45.023Z,73.42
2022-10-24T19:10:28.089Z,75.52
2022-10-24T19:12:55.186Z,75.32
2022-10-24T19:15:22.365Z,74.80
2022-10-24T19:17:51.212Z,75.23
2022-10-24T19:20:21.079Z,75.40
2022-10-24T19:22:48.191Z,74.15
2022-10-24T19:25:16.144Z,74.81
2022-10-24T19:27:45.398Z,74.60
2022-10-24T19:30:12.862Z,75.29
2022-10-24T19:32:39.526Z,76.24
2022-10-24T19:35:06.685Z,74.93
2022-10-24T19:37:36.062Z,75.61
2022-10-24T19:40:03.033Z,76.81
2022-10-24T19:42:29.856Z,77.70
2022-10-24T19:44:56.681Z,77.79
2022-10-24T19:47:23.628Z,79.29
2022-10-24T19:49:50.886Z,78.89
2022-10-24T19:52:17.602Z,78.99
2022-10-24T19:54:44.270Z,79.04
2022-10-24T19:57:11.717Z,78.78
2022-10-24T19:59:38.440Z,78.70
2022-10-24T20:02:05.750Z,79.43
2022-10-24T20:04:32.666Z,78.65
2022-10-24T20:06:59.544Z,78.58
2022-10-24T20:09:26.353Z,78.18
2022-10-24T20:11:53.096Z,79.06
2022-10-24T20:14:20.055Z,78.76
2022-10-24T20:16:46.747Z,78.99
2022-10-24T20:19:13.427Z,79.88
2022-10-24T20:21:40.598Z,78.43
2022-10-24T20:24:08.153Z,78.56
2022-10-24T20:26:35.466Z,79.20
2022-10-24T20:29:02.923Z,79.16
2022-10-24T20:31:50.384Z,78.98
2022-10-24T20:34:17.328Z,79.04
2022-10-24T20:36:47.285Z,79.16
2022-10-24T20:39:16.271Z,79.43
2022-10-24T20:41:43.241Z,79.15
2022-10-24T20:44:11.689Z,80.15
2022-10-24T20:46:39.038Z,78.42
2022-10-24T20:49:05.822Z,77.56
2022-10-24T20:51:32.703Z,77.81
2022-10-24T20:53:59.471Z,78.03
2022-10-24T20:56:27.076Z,79.23
2022-10-24T20:58:56.808Z,79.06
2022-10-24T21:01:36.853Z,79.73
2022-10-24T21:04:03.715Z,78.62
2022-10-24T21:06:34.453Z,78.84
2022-10-24T21:09:08.544Z,80.04
2022-10-24T21:11:38.975Z,81.07
2022-10-24T21:14:08.166Z,80.01
2022-10-24T21:16:40.902Z,80.82
2022-10-24T21:19:07.561Z,80.72
2022-10-24T21:21:34.157Z,80.35
2022-10-24T21:24:04.279Z,79.91
2022-10-24T21:26:42.673Z,81.11
2022-10-24T21:31:58.163Z,81.17
2022-10-24T21:34:26.801Z,79.96
2022-10-24T21:36:55.624Z,80.36
2022-10-24T21:39:22.506Z,80.39
2022-10-24T21:41:49.084Z,81.36
2022-10-24T21:44:15.817Z,82.20
2022-10-24T21:46:42.798Z,82.39
2022-10-24T21:49:12.624Z,81.61
2022-10-24T21:51:41.257Z,82.24
2022-10-24T21:54:16.237Z,81.34
2022-10-24T21:56:42.966Z,82.13
2022-10-24T21:59:13.014Z,82.52
2022-10-24T22:01:40.472Z,81.60
2022-10-24T22:04:08.199Z,80.95
2022-10-24T22:06:36.135Z,80.72
2022-10-24T22:09:06.992Z,81.96
2022-10-24T22:11:37.236Z,82.17
2022-10-24T22:14:05.617Z,81.37
2022-10-24T22:16:32.747Z,82.02
2022-10-24T22:19:02.267Z,80.77
2022-10-24T22:21:45.924Z,81.06
2022-10-24T22:24:19.440Z,81.00
2022-10-24T22:26:47.029Z,81.14
2022-10-24T22:29:16.723Z,80.14
2022-10-24T22:31:44.531Z,80.75
2022-10-24T22:34:15.637Z,81.69
2022-10-24T22:36:52.687Z,81.20
2022-10-24T22:39:22.585Z,80.88
2022-10-24T22:41:50.269Z,81.47
2022-10-24T22:44:20.576Z,80.43
2022-10-24T22:47:24.724Z,79.66
2022-10-24T22:49:57.606Z,80.00
2022-10-24T22:52:24.693Z,80.39
2022-10-24T22:54:52.415Z,80.72
2022-10-24T22:57:19.507Z,79.27
2022-10-24T22:59:46.429Z,79.03
2022-10-24T23:02:33.295Z,78.96
2022-10-24T23:05:05.143Z,80.47
2022-10-24T23:07:39.927Z,79.50
2022-10-24T23:10:10.671Z,81.27
2022-10-24T23:12:37.631Z,80.59
2022-10-24T23:15:04.689Z,80.06
2022-10-24T23:17:32.754Z,79.81
2022-10-24T23:19:59.956Z,79.87
2022-10-24T23:22:26.639Z,81.74
2022-10-24T23:24:55.661Z,81.89
2022-10-24T23:27:25.047Z,82.27
2022-10-24T23:29:51.834Z,81.30
2022-10-24T23:32:23.301Z,80.91
2022-10-24T23:34:51.094Z,80.26
2022-10-24T23:37:38.974Z,79.86
2022-10-24T23:40:17.887Z,80.93
2022-10-24T23:42:45.932Z,80.19
2022-10-24T23:45:24.097Z,81.49
2022-10-24T23:48:29.720Z,81.27
2022-10-24T23:51:14.261Z,82.24
2022-10-24T23:53:52.776Z,80.44
2022-10-24T23:56:24.647Z,81.21
2022-10-24T23:58:51.947Z,81.52
